createdAt,value
2018-11-13T00:00:52.237Z,74.13
2018-11-13T00:03:21.538Z,74.55
2018-11-13T00:05:52.853Z,74.68
2018-11-13T00:08:23.595Z,74.41
2018-11-13T00:10:53.182Z,74.46
2018-11-13T00:13:23.080Z,74.58
2018-11-13T00:15:54.307Z,74.41
2018-11-13T00:18:23.576Z,74.68
2018-11-13T00:20:52.871Z,74.47
2018-11-13T00:23:23.837Z,74.60
2018-11-13T00:25:54.175Z,74.33
2018-11-13T00:28:24.430Z,74.43
2018-11-13T00:30:53.945Z,75.29
2018-11-13T00:33:26.346Z,74.46
2018-11-13T00:35:56.699Z,74.86
2018-11-13T00:38:27.052Z,74.83
2018-11-13T00:40:57.702Z,74.95
2018-11-13T00:43:28.893Z,75.01
2018-11-13T00:45:58.181Z,74.66
2018-11-13T00:48:28.707Z,75.59
2018-11-13T00:50:58.344Z,75.64
2018-11-13T00:53:27.645Z,76.12
2018-11-13T00:55:57.549Z,75.75
2018-11-13T00:58:26.938Z,76.10
2018-11-13T01:00:57.453Z,76.19
2018-11-13T01:03:27.604Z,75.96
2018-11-13T01:05:57.428Z,76.04
2018-11-13T01:08:27.743Z,76.20
2018-11-13T01:10:57.167Z,75.58
2018-11-13T01:13:26.704Z,75.38
2018-11-13T01:15:56.004Z,75.30
2018-11-13T01:18:27.474Z,75.24
2018-11-13T01:20:57.391Z,74.81
2018-11-13T01:23:27.751Z,74.54
2018-11-13T01:25:57.255Z,75.53
2018-11-13T01:28:27.808Z,75.20
2018-11-13T01:30:58.029Z,74.92
2018-11-13T01:33:28.626Z,74.89
2018-11-13T01:35:58.739Z,74.75
2018-11-13T01:38:29.748Z,74.58
2018-11-13T01:40:59.559Z,74.38
2018-11-13T01:43:29.571Z,74.16
2018-11-13T01:45:59.083Z,74.06
2018-11-13T01:48:28.911Z,74.08
2018-11-13T01:51:02.479Z,73.75
2018-11-13T01:53:34.210Z,73.33
2018-11-13T01:56:04.638Z,73.16
2018-11-13T01:58:34.571Z,73.38
2018-11-13T02:01:04.150Z,73.62
2018-11-13T02:03:35.693Z,73.24
2018-11-13T02:06:05.241Z,73.28
2018-11-13T02:08:35.713Z,73.74
2018-11-13T02:11:05.329Z,73.86
2018-11-13T02:13:35.458Z,73.29
2018-11-13T02:16:05.872Z,73.48
2018-11-13T02:18:37.149Z,73.25
2018-11-13T02:21:08.952Z,73.10
2018-11-13T02:23:38.489Z,72.92
2018-11-13T02:26:08.813Z,72.77
2018-11-13T02:28:38.713Z,72.13
2018-11-13T02:31:07.934Z,72.37
2018-11-13T02:33:38.155Z,72.40
2018-11-13T02:36:08.667Z,72.05
2018-11-13T02:38:39.813Z,72.24
2018-11-13T02:41:14.193Z,72.33
2018-11-13T02:43:48.154Z,72.82
2018-11-13T02:46:19.158Z,72.34
2018-11-13T02:48:52.675Z,72.49
2018-11-13T02:51:22.215Z,72.61
2018-11-13T02:53:51.475Z,72.78
2018-11-13T02:56:22.914Z,72.32
2018-11-13T02:58:54.058Z,72.50
2018-11-13T03:01:23.515Z,72.03
2018-11-13T03:03:54.112Z,72.29
2018-11-13T03:06:25.127Z,72.11
2018-11-13T03:08:55.016Z,72.31
2018-11-13T03:11:25.902Z,72.38
2018-11-13T03:13:59.906Z,72.67
2018-11-13T03:16:30.811Z,72.40
2018-11-13T03:19:00.170Z,72.79
2018-11-13T03:21:29.407Z,73.26
2018-11-13T03:23:58.972Z,72.98
2018-11-13T03:26:28.414Z,73.23
2018-11-13T03:28:58.787Z,72.47
2018-11-13T03:31:28.390Z,72.36
2018-11-13T03:33:59.475Z,72.75
2018-11-13T03:36:30.523Z,72.51
2018-11-13T03:39:00.891Z,72.28
2018-11-13T03:41:31.343Z,72.88
2018-11-13T03:44:02.396Z,72.51
2018-11-13T03:46:31.748Z,72.65
2018-11-13T03:49:02.898Z,72.39
2018-11-13T03:51:34.009Z,72.50
2018-11-13T03:54:03.888Z,72.65
2018-11-13T03:56:33.365Z,72.84
2018-11-13T03:59:04.648Z,72.82
2018-11-13T04:01:33.982Z,73.06
2018-11-13T04:04:08.823Z,73.27
2018-11-13T04:06:39.336Z,72.74
2018-11-13T04:09:11.602Z,72.79
2018-11-13T04:11:42.326Z,71.87
2018-11-13T04:14:12.862Z,72.41
2018-11-13T04:16:42.369Z,72.63
2018-11-13T04:19:12.952Z,72.64
2018-11-13T04:21:43.369Z,73.21
2018-11-13T04:24:14.075Z,73.73
2018-11-13T04:26:45.691Z,73.63
2018-11-13T04:29:15.824Z,72.82
2018-11-13T04:31:47.261Z,73.14
2018-11-13T04:34:17.278Z,72.41
2018-11-13T04:36:47.844Z,72.30
2018-11-13T04:39:18.353Z,72.29
2018-11-13T04:41:48.985Z,72.67
2018-11-13T04:44:18.326Z,72.47
2018-11-13T04:46:49.919Z,72.57
2018-11-13T04:49:21.360Z,72.71
2018-11-13T04:51:51.673Z,73.05
2018-11-13T04:54:21.744Z,73.67
2018-11-13T04:56:54.345Z,73.55
2018-11-13T04:59:24.106Z,74.02
2018-11-13T05:01:55.641Z,74.17
2018-11-13T05:04:26.422Z,74.53
2018-11-13T05:06:57.750Z,75.09
2018-11-13T05:09:27.928Z,74.65
2018-11-13T05:11:57.580Z,74.84
2018-11-13T05:14:28.021Z,74.84
2018-11-13T05:16:57.464Z,74.49
2018-11-13T05:19:27.570Z,74.68
2018-11-13T05:22:01.956Z,74.92
2018-11-13T05:24:31.889Z,75.01
2018-11-13T05:27:02.363Z,75.48
2018-11-13T05:29:33.472Z,75.93
2018-11-13T05:32:03.006Z,76.52
2018-11-13T05:34:37.960Z,76.84
2018-11-13T05:37:08.318Z,76.57
2018-11-13T05:39:37.841Z,75.80
2018-11-13T05:42:08.701Z,76.06
2018-11-13T05:44:39.705Z,75.58
2018-11-13T05:47:10.148Z,74.80
2018-11-13T05:49:39.480Z,74.42
2018-11-13T05:52:09.276Z,74.30
2018-11-13T05:54:39.656Z,74.45
2018-11-13T05:57:10.385Z,74.67
2018-11-13T05:59:40.809Z,74.83
2018-11-13T06:02:12.417Z,74.53
2018-11-13T06:04:42.868Z,74.18
2018-11-13T06:07:15.074Z,74.10
2018-11-13T06:09:45.242Z,73.97
2018-11-13T06:12:16.401Z,73.85
2018-11-13T06:14:46.294Z,74.11
2018-11-13T06:17:19.581Z,74.14
2018-11-13T06:19:49.699Z,74.24
2018-11-13T06:22:19.176Z,73.73
2018-11-13T06:24:49.403Z,73.51
2018-11-13T06:27:26.163Z,73.12
2018-11-13T06:29:56.063Z,72.84
2018-11-13T06:32:25.509Z,72.54
2018-11-13T06:34:56.690Z,72.50
2018-11-13T06:37:28.800Z,71.81
2018-11-13T06:40:00.481Z,71.18
2018-11-13T06:42:29.906Z,71.51
2018-11-13T06:44:59.341Z,70.72
2018-11-13T06:47:29.979Z,70.84
2018-11-13T06:50:00.296Z,71.25
2018-11-13T06:52:30.227Z,72.09
2018-11-13T06:55:05.127Z,72.19
2018-11-13T06:57:35.768Z,71.74
2018-11-13T07:06:53.136Z,72.96
2018-11-13T07:09:22.162Z,72.83
2018-11-13T07:11:51.231Z,73.03
2018-11-13T07:14:20.259Z,73.20
2018-11-13T07:16:49.147Z,72.74
2018-11-13T07:19:18.122Z,72.66
2018-11-13T07:21:47.220Z,72.34
2018-11-13T07:24:18.870Z,71.69
2018-11-13T07:26:47.862Z,71.66
2018-11-13T07:29:16.898Z,71.78
2018-11-13T07:31:45.846Z,72.11
2018-11-13T07:34:14.921Z,72.31
2018-11-13T07:36:43.888Z,72.13
2018-11-13T07:39:12.791Z,71.97
2018-11-13T07:41:43.156Z,71.67
2018-11-13T07:44:12.219Z,71.30
2018-11-13T07:46:41.237Z,70.39
2018-11-13T07:49:10.306Z,70.14
2018-11-13T07:51:39.319Z,70.17
2018-11-13T07:54:08.351Z,69.80
2018-11-13T07:56:38.851Z,69.39
2018-11-13T07:59:07.991Z,69.46
2018-11-13T08:01:36.996Z,69.23
2018-11-13T08:04:06.388Z,68.66
2018-11-13T08:06:35.393Z,68.25
2018-11-13T08:09:04.844Z,68.50
2018-11-13T08:11:33.924Z,68.20
2018-11-13T08:14:02.864Z,68.09
2018-11-13T08:16:31.963Z,68.70
2018-11-13T08:19:00.940Z,68.77
2018-11-13T08:21:29.956Z,68.43
2018-11-13T08:23:58.995Z,68.56
2018-11-13T08:26:27.985Z,68.32
2018-11-13T08:28:57.071Z,68.56
2018-11-13T08:31:26.104Z,68.69
2018-11-13T08:33:55.169Z,68.84
2018-11-13T08:36:24.260Z,68.54
2018-11-13T08:38:53.278Z,68.64
2018-11-13T08:41:22.272Z,67.97
2018-11-13T08:43:51.255Z,67.86
2018-11-13T08:46:20.270Z,67.45
2018-11-13T08:48:49.308Z,66.94
2018-11-13T08:51:18.186Z,67.18
2018-11-13T08:53:47.183Z,67.30
2018-11-13T08:56:16.216Z,67.03
2018-11-13T08:58:45.203Z,67.11
2018-11-13T09:01:14.204Z,67.66
2018-11-13T09:03:43.107Z,67.57
2018-11-13T09:06:12.021Z,67.12
2018-11-13T09:08:42.332Z,67.34
2018-11-13T09:11:11.424Z,67.85
2018-11-13T09:13:40.457Z,67.91
2018-11-13T09:16:09.430Z,67.71
2018-11-13T09:18:38.429Z,67.68
2018-11-13T09:21:07.483Z,67.60
2018-11-13T09:23:36.477Z,67.88
2018-11-13T09:26:05.365Z,67.99
2018-11-13T09:28:34.298Z,67.78
2018-11-13T09:31:04.930Z,68.28
2018-11-13T09:33:33.816Z,67.88
2018-11-13T09:36:02.740Z,68.14
2018-11-13T09:38:31.827Z,68.40
2018-11-13T09:41:00.878Z,68.36
2018-11-13T09:43:31.281Z,68.87
2018-11-13T09:46:00.382Z,68.86
2018-11-13T09:48:29.437Z,68.23
2018-11-13T09:50:58.546Z,68.02
2018-11-13T09:53:27.553Z,67.31
2018-11-13T09:55:56.434Z,67.97
2018-11-13T09:58:25.371Z,67.46
2018-11-13T10:00:54.612Z,67.21
2018-11-13T10:03:24.094Z,67.49
2018-11-13T10:05:52.547Z,67.26
2018-11-13T10:08:21.632Z,66.98
2018-11-13T10:10:50.635Z,67.26
2018-11-13T10:13:19.653Z,67.15
2018-11-13T10:15:48.600Z,67.14
2018-11-13T10:18:17.671Z,67.32
2018-11-13T10:20:46.511Z,67.41
2018-11-13T10:23:15.349Z,67.78
2018-11-13T10:25:44.367Z,68.37
2018-11-13T10:28:13.391Z,68.71
2018-11-13T10:30:42.347Z,68.07
2018-11-13T10:33:11.370Z,68.24
2018-11-13T10:35:40.401Z,67.53
2018-11-13T10:38:09.291Z,67.96
2018-11-13T10:40:38.353Z,67.78
2018-11-13T10:43:07.415Z,67.81
2018-11-13T10:45:36.334Z,68.00
2018-11-13T10:48:05.307Z,68.21
2018-11-13T10:50:34.260Z,67.90
2018-11-13T10:53:03.273Z,68.24
2018-11-13T10:55:32.467Z,68.23
2018-11-13T10:58:01.416Z,68.94
2018-11-13T11:02:43.151Z,68.53
2018-11-13T11:05:12.074Z,69.17
2018-11-13T11:07:41.039Z,68.91
2018-11-13T11:10:10.060Z,68.82
2018-11-13T11:12:40.382Z,68.54
2018-11-13T11:15:10.141Z,68.98
2018-11-13T11:17:39.071Z,68.82
2018-11-13T11:20:10.131Z,68.93
2018-11-13T11:22:39.091Z,68.42
2018-11-13T11:25:09.701Z,68.24
2018-11-13T11:27:38.743Z,68.46
2018-11-13T11:30:11.022Z,69.28
2018-11-13T11:32:40.110Z,68.92
2018-11-13T11:35:09.231Z,68.37
2018-11-13T11:37:39.015Z,67.42
2018-11-13T11:40:08.160Z,68.48
2018-11-13T11:42:37.800Z,68.39
2018-11-13T11:45:08.845Z,68.47
2018-11-13T11:47:37.960Z,68.48
2018-11-13T11:50:07.888Z,68.89
2018-11-13T11:52:36.879Z,68.77
2018-11-13T11:55:05.883Z,68.37
2018-11-13T11:57:34.817Z,68.63
2018-11-13T12:00:03.988Z,68.37
2018-11-13T12:02:32.939Z,67.99
2018-11-13T12:05:01.983Z,68.04
2018-11-13T12:07:31.008Z,67.90
2018-11-13T12:09:59.967Z,68.20
2018-11-13T12:12:28.981Z,67.85
2018-11-13T12:14:59.137Z,69.07
2018-11-13T12:17:28.065Z,68.44
2018-11-13T12:19:57.055Z,68.53
2018-11-13T12:22:26.015Z,68.35
2018-11-13T12:24:55.197Z,68.58
2018-11-13T12:27:24.243Z,68.34
2018-11-13T12:29:53.435Z,68.46
2018-11-13T12:32:22.303Z,68.57
2018-11-13T12:34:51.203Z,68.41
2018-11-13T12:37:21.612Z,68.57
2018-11-13T12:39:50.552Z,68.75
2018-11-13T12:42:19.606Z,68.61
2018-11-13T12:44:49.803Z,69.48
2018-11-13T12:47:18.852Z,69.65
2018-11-13T12:49:47.876Z,70.13
2018-11-13T12:52:17.933Z,70.03
2018-11-13T12:54:48.983Z,69.98
2018-11-13T12:57:17.919Z,70.64
2018-11-13T12:59:48.358Z,71.36
2018-11-13T13:02:17.424Z,71.96
2018-11-13T13:04:46.433Z,72.50
2018-11-13T13:07:15.467Z,72.51
2018-11-13T13:09:44.560Z,72.64
2018-11-13T13:12:13.562Z,73.14
2018-11-13T13:14:42.600Z,72.87
2018-11-13T13:17:12.721Z,72.80
2018-11-13T13:19:41.824Z,74.03
2018-11-13T13:22:11.700Z,73.64
2018-11-13T13:24:40.667Z,73.88
2018-11-13T13:27:09.675Z,74.41
2018-11-13T13:29:38.575Z,74.48
2018-11-13T13:32:07.599Z,75.28
2018-11-13T13:34:36.613Z,75.65
2018-11-13T13:37:05.748Z,75.41
2018-11-13T13:39:34.780Z,75.65
2018-11-13T13:42:04.113Z,75.82
2018-11-13T13:44:33.146Z,76.34
2018-11-13T13:47:02.316Z,76.10
2018-11-13T13:49:31.364Z,76.67
2018-11-13T13:52:00.245Z,77.18
2018-11-13T13:54:29.256Z,77.24
2018-11-13T13:56:58.368Z,77.58
2018-11-13T13:59:27.459Z,76.96
2018-11-13T14:01:56.429Z,77.60
2018-11-13T14:04:25.481Z,77.01
2018-11-13T14:06:54.419Z,77.68
2018-11-13T14:09:23.519Z,78.53
2018-11-13T14:11:52.491Z,78.51
2018-11-13T14:14:21.400Z,77.77
2018-11-13T14:16:50.381Z,77.66
2018-11-13T14:19:19.359Z,78.20
2018-11-13T14:21:48.296Z,78.17
2018-11-13T14:24:17.335Z,78.31
2018-11-13T14:26:46.300Z,78.25
2018-11-13T14:29:15.270Z,78.15
2018-11-13T14:31:44.182Z,77.83
2018-11-13T14:34:14.390Z,77.02
2018-11-13T14:36:43.399Z,77.60
2018-11-13T14:39:12.735Z,77.14
2018-11-13T14:41:41.808Z,77.99
2018-11-13T14:44:10.791Z,78.55
2018-11-13T14:46:39.893Z,79.14
2018-11-13T14:49:09.282Z,79.05
2018-11-13T14:51:38.270Z,78.61
2018-11-13T14:54:07.212Z,78.57
2018-11-13T14:56:36.265Z,78.56
2018-11-13T14:59:05.391Z,78.23
2018-11-13T15:01:34.434Z,78.67
2018-11-13T15:04:03.488Z,78.22
2018-11-13T15:06:32.484Z,78.31
2018-11-13T15:09:01.468Z,78.03
2018-11-13T15:11:30.810Z,77.62
2018-11-13T15:13:59.815Z,77.68
2018-11-13T15:16:28.860Z,77.42
2018-11-13T15:18:57.776Z,77.23
2018-11-13T15:21:26.793Z,76.66
2018-11-13T15:23:55.747Z,76.89
2018-11-13T15:26:25.133Z,76.31
2018-11-13T15:28:54.191Z,75.88
2018-11-13T15:31:23.169Z,75.88
2018-11-13T15:33:52.181Z,75.84
2018-11-13T15:36:21.205Z,75.20
2018-11-13T15:38:50.137Z,75.35
2018-11-13T15:41:19.067Z,75.12
2018-11-13T15:43:48.008Z,74.79
2018-11-13T15:46:16.940Z,75.31
2018-11-13T15:48:45.935Z,74.53
2018-11-13T15:51:14.973Z,74.63
2018-11-13T15:53:45.136Z,74.59
2018-11-13T15:56:14.180Z,74.30
2018-11-13T15:58:43.146Z,73.90
2018-11-13T16:01:12.144Z,73.71
2018-11-13T16:03:41.150Z,73.15
2018-11-13T16:06:10.176Z,72.91
2018-11-13T16:08:40.323Z,72.84
2018-11-13T16:11:09.153Z,72.94
2018-11-13T16:13:39.711Z,72.97
2018-11-13T16:16:08.706Z,72.21
2018-11-13T16:18:37.691Z,72.34
2018-11-13T16:21:07.054Z,72.53
2018-11-13T16:23:35.948Z,72.25
2018-11-13T16:26:05.072Z,72.74
2018-11-13T16:28:35.287Z,72.76
2018-11-13T16:31:04.302Z,72.82
2018-11-13T16:33:33.331Z,72.66
2018-11-13T16:36:03.645Z,72.71
2018-11-13T16:38:32.645Z,73.14
2018-11-13T16:41:01.763Z,73.07
2018-11-13T16:43:32.123Z,72.63
2018-11-13T16:46:01.182Z,72.73
2018-11-13T16:48:30.154Z,73.04
2018-11-13T16:51:00.436Z,72.25
2018-11-13T16:53:29.487Z,72.37
2018-11-13T16:56:04.244Z,72.17
2018-11-13T16:58:33.277Z,71.84
2018-11-13T17:01:02.491Z,72.08
2018-11-13T17:03:31.452Z,72.15
2018-11-13T17:06:00.496Z,72.04
2018-11-13T17:08:29.406Z,72.32
2018-11-13T17:10:59.779Z,72.92
2018-11-13T17:13:28.760Z,73.26
2018-11-13T17:15:57.779Z,72.83
2018-11-13T17:18:27.223Z,73.04
2018-11-13T17:20:55.796Z,72.75
2018-11-13T17:23:24.804Z,72.88
2018-11-13T17:25:55.206Z,73.27
2018-11-13T17:28:24.193Z,73.01
2018-11-13T17:30:53.122Z,72.87
2018-11-13T17:33:22.164Z,72.67
2018-11-13T17:35:51.165Z,72.58
2018-11-13T17:38:20.194Z,72.62
2018-11-13T17:40:49.194Z,72.92
2018-11-13T17:43:20.633Z,72.73
2018-11-13T17:45:50.403Z,72.54
2018-11-13T17:48:19.432Z,72.90
2018-11-13T17:50:48.407Z,72.37
2018-11-13T17:53:17.492Z,72.55
2018-11-13T17:55:46.460Z,72.69
2018-11-13T17:58:15.988Z,72.36
2018-11-13T18:00:48.150Z,72.49
2018-11-13T18:03:17.940Z,72.80
2018-11-13T18:05:47.942Z,72.95
2018-11-13T18:08:16.929Z,72.90
2018-11-13T18:10:47.017Z,72.88
2018-11-13T18:13:16.229Z,72.38
2018-11-13T18:15:45.284Z,72.19
2018-11-13T18:18:14.323Z,72.02
2018-11-13T18:20:43.337Z,71.87
2018-11-13T18:23:12.409Z,72.41
2018-11-13T18:25:41.504Z,72.29
2018-11-13T18:28:10.510Z,72.26
2018-11-13T18:30:39.933Z,72.23
2018-11-13T18:33:09.298Z,71.96
2018-11-13T18:35:39.458Z,72.38
2018-11-13T18:38:10.106Z,72.17
2018-11-13T18:40:39.167Z,72.32
2018-11-13T18:43:08.539Z,72.12
2018-11-13T18:45:38.874Z,72.30
2018-11-13T18:48:07.794Z,71.66
2018-11-13T18:50:38.326Z,71.51
2018-11-13T18:53:07.380Z,71.46
2018-11-13T18:55:36.492Z,71.19
2018-11-13T18:58:05.612Z,71.26
2018-11-13T19:00:36.080Z,70.88
2018-11-13T19:03:06.138Z,70.74
2018-11-13T19:05:35.107Z,71.13
2018-11-13T19:08:04.268Z,71.19
2018-11-13T19:10:37.599Z,71.15
2018-11-13T19:13:08.626Z,71.15
2018-11-13T19:15:39.050Z,71.86
2018-11-13T19:18:08.740Z,71.84
2018-11-13T19:20:38.951Z,71.61
2018-11-13T19:23:08.103Z,71.79
2018-11-13T19:25:37.652Z,71.46
2018-11-13T19:28:08.279Z,71.97
2018-11-13T19:30:37.222Z,72.06
2018-11-13T19:33:06.353Z,71.74
2018-11-13T19:35:35.608Z,71.69
2018-11-13T19:38:04.395Z,72.00
2018-11-13T19:40:34.381Z,72.85
2018-11-13T19:43:04.730Z,73.18
2018-11-13T19:45:34.879Z,73.08
2018-11-13T19:48:03.868Z,73.13
2018-11-13T19:50:35.667Z,73.00
2018-11-13T19:53:04.884Z,73.12
2018-11-13T19:55:34.343Z,72.61
2018-11-13T19:58:03.526Z,72.63
2018-11-13T20:00:34.948Z,72.89
2018-11-13T20:03:06.745Z,73.34
2018-11-13T20:05:35.928Z,73.20
2018-11-13T20:08:05.163Z,73.72
2018-11-13T20:10:36.612Z,73.92
2018-11-13T20:13:08.648Z,74.23
2018-11-13T20:15:39.443Z,73.91
2018-11-13T20:18:08.478Z,74.10
2018-11-13T20:20:37.631Z,74.49
2018-11-13T20:23:09.444Z,74.25
2018-11-13T20:25:38.431Z,74.79
2018-11-13T20:28:07.406Z,74.70
2018-11-13T20:30:37.727Z,74.87
2018-11-13T20:33:06.920Z,74.95
2018-11-13T20:35:35.928Z,75.05
2018-11-13T20:38:05.156Z,75.51
2018-11-13T20:40:35.254Z,74.87
2018-11-13T20:43:05.997Z,75.10
2018-11-13T20:45:35.079Z,75.78
2018-11-13T20:48:04.143Z,76.24
2018-11-13T20:50:34.037Z,76.18
2018-11-13T20:53:03.127Z,75.70
2018-11-13T20:55:32.172Z,76.25
2018-11-13T20:58:01.323Z,76.20
2018-11-13T21:00:32.434Z,76.30
2018-11-13T21:03:01.331Z,76.06
2018-11-13T21:05:31.849Z,75.98
2018-11-13T21:08:00.738Z,75.62
2018-11-13T21:10:34.404Z,75.64
2018-11-13T21:13:03.732Z,76.02
2018-11-13T21:15:32.713Z,76.14
2018-11-13T21:18:02.350Z,76.33
2018-11-13T21:20:31.217Z,76.31
2018-11-13T21:23:00.224Z,75.87
2018-11-13T21:25:29.214Z,75.61
2018-11-13T21:28:00.036Z,75.79
2018-11-13T21:30:29.049Z,75.75
2018-11-13T21:32:58.079Z,75.39
2018-11-13T21:35:27.042Z,75.06
2018-11-13T21:37:57.040Z,75.06
2018-11-13T21:40:26.935Z,74.52
2018-11-13T21:42:56.484Z,75.02
2018-11-13T21:45:26.624Z,75.25
2018-11-13T21:47:55.615Z,75.58
2018-11-13T21:50:25.839Z,75.33
2018-11-13T21:52:54.937Z,74.79
2018-11-13T21:55:25.077Z,74.99
2018-11-13T21:57:54.089Z,75.12
2018-11-13T22:00:31.458Z,74.98
2018-11-13T22:03:01.936Z,74.99
2018-11-13T22:05:31.613Z,74.42
2018-11-13T22:08:00.641Z,74.51
2018-11-13T22:10:29.678Z,74.27
2018-11-13T22:12:58.602Z,73.99
2018-11-13T22:15:28.626Z,74.04
2018-11-13T22:17:57.548Z,74.32
2018-11-13T22:20:26.603Z,74.28
2018-11-13T22:22:56.933Z,74.18
2018-11-13T22:25:26.947Z,74.39
2018-11-13T22:27:57.034Z,74.80
2018-11-13T22:30:27.435Z,75.02
2018-11-13T22:32:56.447Z,74.45
2018-11-13T22:35:25.398Z,74.29
2018-11-13T22:37:54.473Z,74.26
2018-11-13T22:40:24.728Z,73.98
2018-11-13T22:42:53.703Z,74.07
2018-11-13T22:45:23.936Z,73.70
2018-11-13T22:47:53.245Z,74.66
2018-11-13T22:50:24.365Z,75.27
2018-11-13T22:52:53.708Z,75.53
2018-11-13T22:55:22.757Z,75.33
2018-11-13T22:57:53.304Z,74.68
2018-11-13T23:00:23.172Z,74.82
2018-11-13T23:02:53.412Z,74.54
2018-11-13T23:05:22.426Z,74.34
2018-11-13T23:07:51.412Z,74.94
2018-11-13T23:10:20.523Z,74.25
2018-11-13T23:12:49.498Z,73.38
2018-11-13T23:15:19.883Z,73.67
2018-11-13T23:17:49.006Z,73.18
2018-11-13T23:20:19.267Z,73.19
2018-11-13T23:22:48.220Z,72.96
2018-11-13T23:25:18.387Z,72.90
2018-11-13T23:27:48.265Z,73.25
2018-11-13T23:30:22.267Z,73.50
2018-11-13T23:32:51.345Z,73.88
2018-11-13T23:35:20.510Z,73.93
2018-11-13T23:37:50.705Z,73.70
2018-11-13T23:40:21.125Z,73.65
2018-11-13T23:42:50.567Z,73.80
2018-11-13T23:45:20.549Z,73.35
2018-11-13T23:47:49.974Z,72.90
2018-11-13T23:50:19.051Z,73.05
2018-11-13T23:52:49.134Z,73.24
2018-11-13T23:55:18.487Z,73.50
2018-11-13T23:57:48.040Z,73.24
